sensor_id;sensor_type;location;lat;lon;timestamp;P1;durP1;ratioP1;P2;durP2;ratioP2
61785;SDS011;47692;53.714;11.372;2022-12-20T00:01:42;28.30;;;13.65;;
61785;SDS011;47692;53.714;11.372;2022-12-20T00:04:09;29.95;;;14.35;;
61785;SDS011;47692;53.714;11.372;2022-12-20T00:06:35;30.10;;;13.32;;
61785;SDS011;47692;53.714;11.372;2022-12-20T00:09:01;29.02;;;14.18;;
61785;SDS011;47692;53.714;11.372;2022-12-20T00:11:28;28.27;;;12.90;;
61785;SDS011;47692;53.714;11.372;2022-12-20T00:13:54;25.98;;;13.43;;
61785;SDS011;47692;53.714;11.372;2022-12-20T00:16:23;30.17;;;14.65;;
61785;SDS011;47692;53.714;11.372;2022-12-20T00:18:51;30.05;;;15.02;;
61785;SDS011;47692;53.714;11.372;2022-12-20T00:21:18;27.83;;;13.30;;
61785;SDS011;47692;53.714;11.372;2022-12-20T00:23:44;34.47;;;14.05;;
61785;SDS011;47692;53.714;11.372;2022-12-20T00:26:13;29.63;;;14.27;;
61785;SDS011;47692;53.714;11.372;2022-12-20T00:28:41;29.25;;;13.90;;
61785;SDS011;47692;53.714;11.372;2022-12-20T00:31:07;27.60;;;13.10;;
61785;SDS011;47692;53.714;11.372;2022-12-20T00:33:34;27.13;;;12.48;;
61785;SDS011;47692;53.714;11.372;2022-12-20T00:36:01;27.73;;;12.82;;
61785;SDS011;47692;53.714;11.372;2022-12-20T00:38:27;25.88;;;13.02;;
61785;SDS011;47692;53.714;11.372;2022-12-20T00:43:26;26.92;;;12.60;;
61785;SDS011;47692;53.714;11.372;2022-12-20T00:45:51;29.10;;;13.00;;
61785;SDS011;47692;53.714;11.372;2022-12-20T00:48:17;23.85;;;12.18;;
61785;SDS011;47692;53.714;11.372;2022-12-20T00:50:42;30.65;;;13.27;;
61785;SDS011;47692;53.714;11.372;2022-12-20T00:53:07;28.73;;;12.88;;
61785;SDS011;47692;53.714;11.372;2022-12-20T00:55:34;28.88;;;13.30;;
61785;SDS011;47692;53.714;11.372;2022-12-20T00:58:04;27.27;;;12.30;;
61785;SDS011;47692;53.714;11.372;2022-12-20T01:00:30;27.08;;;13.13;;
61785;SDS011;47692;53.714;11.372;2022-12-20T01:02:55;29.40;;;13.10;;
61785;SDS011;47692;53.714;11.372;2022-12-20T01:05:21;28.08;;;14.05;;
61785;SDS011;47692;53.714;11.372;2022-12-20T01:07:46;25.60;;;13.60;;
61785;SDS011;47692;53.714;11.372;2022-12-20T01:10:11;28.92;;;13.27;;
61785;SDS011;47692;53.714;11.372;2022-12-20T01:12:37;30.27;;;14.25;;
61785;SDS011;47692;53.714;11.372;2022-12-20T01:15:03;29.75;;;14.60;;
61785;SDS011;47692;53.714;11.372;2022-12-20T01:17:29;26.70;;;13.68;;
61785;SDS011;47692;53.714;11.372;2022-12-20T01:19:54;28.83;;;13.60;;
61785;SDS011;47692;53.714;11.372;2022-12-20T01:22:19;29.90;;;15.05;;
61785;SDS011;47692;53.714;11.372;2022-12-20T01:24:45;25.20;;;13.55;;
61785;SDS011;47692;53.714;11.372;2022-12-20T01:27:10;30.27;;;13.05;;
61785;SDS011;47692;53.714;11.372;2022-12-20T01:29:35;26.80;;;12.93;;
61785;SDS011;47692;53.714;11.372;2022-12-20T01:32:00;28.67;;;12.40;;
61785;SDS011;47692;53.714;11.372;2022-12-20T01:34:26;28.88;;;13.02;;
61785;SDS011;47692;53.714;11.372;2022-12-20T01:36:51;26.70;;;12.60;;
61785;SDS011;47692;53.714;11.372;2022-12-20T01:39:16;25.73;;;11.82;;
61785;SDS011;47692;53.714;11.372;2022-12-20T01:41:42;25.40;;;12.60;;
61785;SDS011;47692;53.714;11.372;2022-12-20T01:46:40;25.52;;;12.45;;
61785;SDS011;47692;53.714;11.372;2022-12-20T01:49:10;26.70;;;12.02;;
61785;SDS011;47692;53.714;11.372;2022-12-20T01:51:51;25.33;;;11.95;;
61785;SDS011;47692;53.714;11.372;2022-12-20T01:54:38;27.90;;;13.35;;
61785;SDS011;47692;53.714;11.372;2022-12-20T01:57:10;22.35;;;11.63;;
61785;SDS011;47692;53.714;11.372;2022-12-20T01:59:39;29.33;;;13.27;;
61785;SDS011;47692;53.714;11.372;2022-12-20T02:02:07;27.17;;;12.50;;
61785;SDS011;47692;53.714;11.372;2022-12-20T02:04:35;29.60;;;13.25;;
61785;SDS011;47692;53.714;11.372;2022-12-20T02:07:00;25.25;;;12.30;;
61785;SDS011;47692;53.714;11.372;2022-12-20T02:09:28;24.60;;;12.10;;
61785;SDS011;47692;53.714;11.372;2022-12-20T02:12:07;26.13;;;12.25;;
61785;SDS011;47692;53.714;11.372;2022-12-20T02:17:22;28.33;;;12.77;;
61785;SDS011;47692;53.714;11.372;2022-12-20T02:25:43;25.60;;;12.05;;
61785;SDS011;47692;53.714;11.372;2022-12-20T02:30:57;29.65;;;12.93;;
61785;SDS011;47692;53.714;11.372;2022-12-20T02:33:29;22.73;;;11.95;;
61785;SDS011;47692;53.714;11.372;2022-12-20T02:35:54;28.20;;;13.27;;
61785;SDS011;47692;53.714;11.372;2022-12-20T02:38:33;26.90;;;12.88;;
61785;SDS011;47692;53.714;11.372;2022-12-20T02:41:02;25.50;;;12.80;;
61785;SDS011;47692;53.714;11.372;2022-12-20T02:46:18;25.92;;;12.55;;
61785;SDS011;47692;53.714;11.372;2022-12-20T02:48:46;26.50;;;11.95;;
61785;SDS011;47692;53.714;11.372;2022-12-20T02:51:12;30.55;;;13.27;;
61785;SDS011;47692;53.714;11.372;2022-12-20T02:53:40;30.48;;;14.15;;
61785;SDS011;47692;53.714;11.372;2022-12-20T02:56:18;26.17;;;12.70;;
61785;SDS011;47692;53.714;11.372;2022-12-20T02:58:48;27.90;;;12.43;;
61785;SDS011;47692;53.714;11.372;2022-12-20T03:01:22;30.23;;;13.85;;
61785;SDS011;47692;53.714;11.372;2022-12-20T03:03:52;30.25;;;14.25;;
61785;SDS011;47692;53.714;11.372;2022-12-20T03:06:19;28.80;;;14.35;;
61785;SDS011;47692;53.714;11.372;2022-12-20T03:08:45;27.83;;;12.93;;
61785;SDS011;47692;53.714;11.372;2022-12-20T03:11:11;26.20;;;13.73;;
61785;SDS011;47692;53.714;11.372;2022-12-20T03:13:37;30.35;;;13.02;;
61785;SDS011;47692;53.714;11.372;2022-12-20T03:16:02;31.13;;;14.77;;
61785;SDS011;47692;53.714;11.372;2022-12-20T03:18:27;31.45;;;14.52;;
61785;SDS011;47692;53.714;11.372;2022-12-20T03:20:53;30.90;;;12.70;;
61785;SDS011;47692;53.714;11.372;2022-12-20T03:23:18;30.23;;;12.85;;
61785;SDS011;47692;53.714;11.372;2022-12-20T03:25:45;31.88;;;13.68;;
61785;SDS011;47692;53.714;11.372;2022-12-20T03:28:11;25.42;;;12.88;;
61785;SDS011;47692;53.714;11.372;2022-12-20T03:30:37;24.00;;;12.68;;
61785;SDS011;47692;53.714;11.372;2022-12-20T03:33:02;29.27;;;13.35;;
61785;SDS011;47692;53.714;11.372;2022-12-20T03:35:28;26.70;;;12.63;;
61785;SDS011;47692;53.714;11.372;2022-12-20T03:37:53;31.08;;;14.10;;
61785;SDS011;47692;53.714;11.372;2022-12-20T03:40:19;27.75;;;13.98;;
61785;SDS011;47692;53.714;11.372;2022-12-20T03:42:45;28.00;;;13.20;;
61785;SDS011;47692;53.714;11.372;2022-12-20T03:45:10;26.05;;;12.93;;
61785;SDS011;47692;53.714;11.372;2022-12-20T03:47:35;28.00;;;12.27;;
61785;SDS011;47692;53.714;11.372;2022-12-20T03:50:01;26.92;;;12.90;;
61785;SDS011;47692;53.714;11.372;2022-12-20T03:52:26;26.27;;;13.68;;
61785;SDS011;47692;53.714;11.372;2022-12-20T03:54:51;22.23;;;11.35;;
61785;SDS011;47692;53.714;11.372;2022-12-20T03:57:17;30.70;;;12.70;;
61785;SDS011;47692;53.714;11.372;2022-12-20T03:59:42;27.55;;;13.20;;
61785;SDS011;47692;53.714;11.372;2022-12-20T04:02:07;27.35;;;12.43;;
61785;SDS011;47692;53.714;11.372;2022-12-20T04:04:33;27.25;;;12.93;;
61785;SDS011;47692;53.714;11.372;2022-12-20T04:06:59;32.45;;;14.30;;
61785;SDS011;47692;53.714;11.372;2022-12-20T04:09:24;28.75;;;13.85;;
61785;SDS011;47692;53.714;11.372;2022-12-20T04:11:50;28.02;;;14.88;;
61785;SDS011;47692;53.714;11.372;2022-12-20T04:14:15;29.10;;;13.85;;
61785;SDS011;47692;53.714;11.372;2022-12-20T04:16:40;26.73;;;13.93;;
61785;SDS011;47692;53.714;11.372;2022-12-20T04:19:05;25.60;;;12.80;;
61785;SDS011;47692;53.714;11.372;2022-12-20T04:21:32;27.48;;;13.02;;
61785;SDS011;47692;53.714;11.372;2022-12-20T04:23:59;27.08;;;13.18;;
61785;SDS011;47692;53.714;11.372;2022-12-20T04:26:26;28.60;;;13.25;;
61785;SDS011;47692;53.714;11.372;2022-12-20T04:28:52;25.13;;;12.07;;
61785;SDS011;47692;53.714;11.372;2022-12-20T04:31:20;24.90;;;12.60;;
61785;SDS011;47692;53.714;11.372;2022-12-20T04:33:46;26.17;;;12.57;;
61785;SDS011;47692;53.714;11.372;2022-12-20T04:36:12;28.85;;;13.05;;
61785;SDS011;47692;53.714;11.372;2022-12-20T04:38:38;30.60;;;13.30;;
61785;SDS011;47692;53.714;11.372;2022-12-20T04:41:03;24.23;;;12.52;;
61785;SDS011;47692;53.714;11.372;2022-12-20T04:43:28;26.80;;;12.07;;
61785;SDS011;47692;53.714;11.372;2022-12-20T04:45:54;23.55;;;11.95;;
61785;SDS011;47692;53.714;11.372;2022-12-20T04:48:20;26.20;;;12.68;;
61785;SDS011;47692;53.714;11.372;2022-12-20T04:50:46;24.45;;;12.23;;
61785;SDS011;47692;53.714;11.372;2022-12-20T04:53:13;25.08;;;12.23;;
61785;SDS011;47692;53.714;11.372;2022-12-20T04:55:57;26.45;;;12.15;;
61785;SDS011;47692;53.714;11.372;2022-12-20T04:58:23;25.67;;;12.18;;
61785;SDS011;47692;53.714;11.372;2022-12-20T05:00:49;26.65;;;12.15;;
61785;SDS011;47692;53.714;11.372;2022-12-20T05:03:16;25.20;;;12.50;;
61785;SDS011;47692;53.714;11.372;2022-12-20T05:05:41;27.55;;;13.52;;
61785;SDS011;47692;53.714;11.372;2022-12-20T05:08:07;25.83;;;12.77;;
61785;SDS011;47692;53.714;11.372;2022-12-20T05:10:32;26.48;;;12.77;;
61785;SDS011;47692;53.714;11.372;2022-12-20T05:12:57;24.70;;;13.02;;
61785;SDS011;47692;53.714;11.372;2022-12-20T05:15:23;24.73;;;13.27;;
61785;SDS011;47692;53.714;11.372;2022-12-20T05:17:48;26.55;;;12.70;;
61785;SDS011;47692;53.714;11.372;2022-12-20T05:20:13;29.48;;;14.02;;
61785;SDS011;47692;53.714;11.372;2022-12-20T05:22:38;25.10;;;12.88;;
61785;SDS011;47692;53.714;11.372;2022-12-20T05:25:22;28.98;;;12.50;;
61785;SDS011;47692;53.714;11.372;2022-12-20T05:28:06;26.27;;;13.55;;
61785;SDS011;47692;53.714;11.372;2022-12-20T05:30:32;27.10;;;12.75;;
61785;SDS011;47692;53.714;11.372;2022-12-20T05:32:57;23.70;;;11.75;;
61785;SDS011;47692;53.714;11.372;2022-12-20T05:35:22;36.38;;;13.40;;
61785;SDS011;47692;53.714;11.372;2022-12-20T05:37:48;27.80;;;13.20;;
61785;SDS011;47692;53.714;11.372;2022-12-20T05:40:13;29.48;;;13.32;;
61785;SDS011;47692;53.714;11.372;2022-12-20T05:42:40;24.95;;;12.23;;
61785;SDS011;47692;53.714;11.372;2022-12-20T05:45:05;27.08;;;12.43;;
61785;SDS011;47692;53.714;11.372;2022-12-20T05:47:31;27.85;;;13.52;;
61785;SDS011;47692;53.714;11.372;2022-12-20T05:50:00;25.98;;;12.75;;
61785;SDS011;47692;53.714;11.372;2022-12-20T05:52:25;27.80;;;12.40;;
61785;SDS011;47692;53.714;11.372;2022-12-20T05:54:51;26.48;;;12.90;;
61785;SDS011;47692;53.714;11.372;2022-12-20T05:57:16;27.08;;;13.38;;
61785;SDS011;47692;53.714;11.372;2022-12-20T05:59:43;30.42;;;11.60;;
61785;SDS011;47692;53.714;11.372;2022-12-20T06:02:08;27.30;;;12.77;;
61785;SDS011;47692;53.714;11.372;2022-12-20T06:04:37;27.42;;;12.55;;
61785;SDS011;47692;53.714;11.372;2022-12-20T06:07:03;23.30;;;11.70;;
61785;SDS011;47692;53.714;11.372;2022-12-20T06:09:29;28.42;;;13.32;;
61785;SDS011;47692;53.714;11.372;2022-12-20T06:11:55;31.55;;;12.95;;
61785;SDS011;47692;53.714;11.372;2022-12-20T06:14:20;22.42;;;12.95;;
61785;SDS011;47692;53.714;11.372;2022-12-20T06:16:45;29.13;;;13.70;;
61785;SDS011;47692;53.714;11.372;2022-12-20T06:19:11;26.65;;;13.30;;
61785;SDS011;47692;53.714;11.372;2022-12-20T06:21:36;32.22;;;12.90;;
61785;SDS011;47692;53.714;11.372;2022-12-20T06:24:02;27.30;;;13.18;;
61785;SDS011;47692;53.714;11.372;2022-12-20T06:26:27;27.13;;;14.25;;
61785;SDS011;47692;53.714;11.372;2022-12-20T06:28:59;28.80;;;14.30;;
61785;SDS011;47692;53.714;11.372;2022-12-20T06:31:26;25.95;;;13.98;;
61785;SDS011;47692;53.714;11.372;2022-12-20T06:33:51;26.95;;;13.80;;
61785;SDS011;47692;53.714;11.372;2022-12-20T06:36:16;29.08;;;13.35;;
61785;SDS011;47692;53.714;11.372;2022-12-20T06:38:42;30.70;;;13.70;;
61785;SDS011;47692;53.714;11.372;2022-12-20T06:41:08;26.08;;;13.48;;
61785;SDS011;47692;53.714;11.372;2022-12-20T06:43:33;25.55;;;13.25;;
61785;SDS011;47692;53.714;11.372;2022-12-20T06:45:58;33.30;;;14.57;;
61785;SDS011;47692;53.714;11.372;2022-12-20T06:48:24;27.23;;;13.60;;
61785;SDS011;47692;53.714;11.372;2022-12-20T06:50:49;26.90;;;12.63;;
61785;SDS011;47692;53.714;11.372;2022-12-20T06:53:14;29.02;;;13.63;;
61785;SDS011;47692;53.714;11.372;2022-12-20T06:55:40;28.05;;;13.63;;
61785;SDS011;47692;53.714;11.372;2022-12-20T06:58:05;29.60;;;14.02;;
61785;SDS011;47692;53.714;11.372;2022-12-20T07:00:31;27.13;;;12.50;;
61785;SDS011;47692;53.714;11.372;2022-12-20T07:02:56;30.55;;;13.60;;
61785;SDS011;47692;53.714;11.372;2022-12-20T07:05:22;35.13;;;13.55;;
61785;SDS011;47692;53.714;11.372;2022-12-20T07:07:47;25.77;;;13.07;;
61785;SDS011;47692;53.714;11.372;2022-12-20T07:10:12;31.42;;;14.98;;
61785;SDS011;47692;53.714;11.372;2022-12-20T07:12:38;31.67;;;13.90;;
61785;SDS011;47692;53.714;11.372;2022-12-20T07:15:03;29.90;;;14.02;;
61785;SDS011;47692;53.714;11.372;2022-12-20T07:17:29;29.42;;;14.45;;
61785;SDS011;47692;53.714;11.372;2022-12-20T07:19:55;30.40;;;13.88;;
61785;SDS011;47692;53.714;11.372;2022-12-20T07:22:20;32.78;;;14.95;;
61785;SDS011;47692;53.714;11.372;2022-12-20T07:24:45;34.78;;;14.82;;
61785;SDS011;47692;53.714;11.372;2022-12-20T07:27:11;33.55;;;14.18;;
61785;SDS011;47692;53.714;11.372;2022-12-20T07:29:37;28.88;;;13.18;;
61785;SDS011;47692;53.714;11.372;2022-12-20T07:32:07;30.77;;;14.50;;
61785;SDS011;47692;53.714;11.372;2022-12-20T07:34:32;30.20;;;15.10;;
61785;SDS011;47692;53.714;11.372;2022-12-20T07:36:58;34.92;;;14.77;;
61785;SDS011;47692;53.714;11.372;2022-12-20T07:39:23;30.98;;;14.57;;
61785;SDS011;47692;53.714;11.372;2022-12-20T07:41:51;37.25;;;15.40;;
61785;SDS011;47692;53.714;11.372;2022-12-20T07:44:18;33.65;;;15.57;;
61785;SDS011;47692;53.714;11.372;2022-12-20T07:46:43;33.08;;;14.05;;
61785;SDS011;47692;53.714;11.372;2022-12-20T07:49:08;30.58;;;15.20;;
61785;SDS011;47692;53.714;11.372;2022-12-20T07:51:35;35.55;;;14.45;;
61785;SDS011;47692;53.714;11.372;2022-12-20T07:54:39;29.10;;;14.18;;
61785;SDS011;47692;53.714;11.372;2022-12-20T07:56:59;32.15;;;13.65;;
61785;SDS011;47692;53.714;11.372;2022-12-20T07:59:33;28.42;;;14.90;;
61785;SDS011;47692;53.714;11.372;2022-12-20T08:02:03;31.90;;;14.93;;
61785;SDS011;47692;53.714;11.372;2022-12-20T08:04:30;31.75;;;14.52;;
61785;SDS011;47692;53.714;11.372;2022-12-20T08:06:56;29.83;;;15.35;;
61785;SDS011;47692;53.714;11.372;2022-12-20T08:09:24;32.47;;;14.27;;
61785;SDS011;47692;53.714;11.372;2022-12-20T08:11:53;31.33;;;14.48;;
61785;SDS011;47692;53.714;11.372;2022-12-20T08:14:18;28.50;;;13.93;;
61785;SDS011;47692;53.714;11.372;2022-12-20T08:16:44;28.83;;;14.90;;
61785;SDS011;47692;53.714;11.372;2022-12-20T08:19:10;30.15;;;14.20;;
61785;SDS011;47692;53.714;11.372;2022-12-20T08:21:35;34.28;;;15.68;;
61785;SDS011;47692;53.714;11.372;2022-12-20T08:24:01;31.83;;;15.07;;
61785;SDS011;47692;53.714;11.372;2022-12-20T08:26:26;27.15;;;12.95;;
61785;SDS011;47692;53.714;11.372;2022-12-20T08:28:52;31.30;;;14.82;;
61785;SDS011;47692;53.714;11.372;2022-12-20T08:31:18;27.75;;;14.13;;
61785;SDS011;47692;53.714;11.372;2022-12-20T08:33:43;31.48;;;13.55;;
61785;SDS011;47692;53.714;11.372;2022-12-20T08:36:10;34.40;;;14.93;;
61785;SDS011;47692;53.714;11.372;2022-12-20T08:38:37;28.45;;;14.13;;
61785;SDS011;47692;53.714;11.372;2022-12-20T08:41:04;28.92;;;13.88;;
61785;SDS011;47692;53.714;11.372;2022-12-20T08:43:31;32.05;;;13.98;;
61785;SDS011;47692;53.714;11.372;2022-12-20T08:45:58;30.55;;;14.20;;
61785;SDS011;47692;53.714;11.372;2022-12-20T08:48:24;32.72;;;14.05;;
61785;SDS011;47692;53.714;11.372;2022-12-20T08:50:57;30.08;;;13.15;;
61785;SDS011;47692;53.714;11.372;2022-12-20T08:53:27;31.63;;;15.02;;
61785;SDS011;47692;53.714;11.372;2022-12-20T08:55:53;26.42;;;13.32;;
61785;SDS011;47692;53.714;11.372;2022-12-20T08:58:27;27.83;;;13.02;;
61785;SDS011;47692;53.714;11.372;2022-12-20T09:00:53;29.27;;;13.98;;
61785;SDS011;47692;53.714;11.372;2022-12-20T09:03:18;32.50;;;15.25;;
61785;SDS011;47692;53.714;11.372;2022-12-20T09:05:45;28.30;;;13.75;;
61785;SDS011;47692;53.714;11.372;2022-12-20T09:08:11;30.33;;;14.35;;
61785;SDS011;47692;53.714;11.372;2022-12-20T09:10:37;26.80;;;13.43;;
61785;SDS011;47692;53.714;11.372;2022-12-20T09:13:02;30.67;;;13.55;;
61785;SDS011;47692;53.714;11.372;2022-12-20T09:15:27;27.83;;;13.25;;
61785;SDS011;47692;53.714;11.372;2022-12-20T09:17:53;32.67;;;12.75;;
61785;SDS011;47692;53.714;11.372;2022-12-20T09:20:19;28.48;;;13.13;;
61785;SDS011;47692;53.714;11.372;2022-12-20T09:22:45;29.40;;;14.23;;
61785;SDS011;47692;53.714;11.372;2022-12-20T09:25:10;27.33;;;13.00;;
61785;SDS011;47692;53.714;11.372;2022-12-20T09:27:35;35.83;;;13.38;;
61785;SDS011;47692;53.714;11.372;2022-12-20T09:30:02;26.25;;;12.35;;
61785;SDS011;47692;53.714;11.372;2022-12-20T09:32:27;27.50;;;13.15;;
61785;SDS011;47692;53.714;11.372;2022-12-20T09:34:52;27.63;;;13.75;;
61785;SDS011;47692;53.714;11.372;2022-12-20T09:37:18;28.35;;;13.48;;
61785;SDS011;47692;53.714;11.372;2022-12-20T09:39:43;25.38;;;12.85;;
61785;SDS011;47692;53.714;11.372;2022-12-20T09:42:08;27.35;;;13.65;;
61785;SDS011;47692;53.714;11.372;2022-12-20T09:44:35;29.98;;;13.75;;
61785;SDS011;47692;53.714;11.372;2022-12-20T09:47:05;27.20;;;13.35;;
61785;SDS011;47692;53.714;11.372;2022-12-20T09:49:35;24.60;;;11.43;;
61785;SDS011;47692;53.714;11.372;2022-12-20T10:00:19;26.13;;;11.98;;
61785;SDS011;47692;53.714;11.372;2022-12-20T10:02:45;23.45;;;11.90;;
61785;SDS011;47692;53.714;11.372;2022-12-20T10:05:13;26.17;;;11.35;;
61785;SDS011;47692;53.714;11.372;2022-12-20T10:07:46;23.27;;;11.40;;
61785;SDS011;47692;53.714;11.372;2022-12-20T10:10:24;23.08;;;10.43;;
61785;SDS011;47692;53.714;11.372;2022-12-20T10:13:06;21.98;;;11.45;;
61785;SDS011;47692;53.714;11.372;2022-12-20T10:15:40;23.13;;;10.93;;
61785;SDS011;47692;53.714;11.372;2022-12-20T10:18:20;24.02;;;11.13;;
61785;SDS011;47692;53.714;11.372;2022-12-20T10:21:00;21.83;;;11.07;;
61785;SDS011;47692;53.714;11.372;2022-12-20T10:24:00;23.75;;;10.88;;
61785;SDS011;47692;53.714;11.372;2022-12-20T10:26:28;21.67;;;11.23;;
61785;SDS011;47692;53.714;11.372;2022-12-20T10:28:54;22.83;;;12.48;;
61785;SDS011;47692;53.714;11.372;2022-12-20T10:31:20;24.20;;;12.90;;
61785;SDS011;47692;53.714;11.372;2022-12-20T10:33:46;21.05;;;11.15;;
61785;SDS011;47692;53.714;11.372;2022-12-20T10:38:51;21.80;;;11.52;;
61785;SDS011;47692;53.714;11.372;2022-12-20T10:41:19;26.30;;;12.88;;
61785;SDS011;47692;53.714;11.372;2022-12-20T10:43:49;19.60;;;9.85;;
61785;SDS011;47692;53.714;11.372;2022-12-20T10:46:18;22.27;;;12.35;;
61785;SDS011;47692;53.714;11.372;2022-12-20T10:48:45;19.15;;;10.50;;
61785;SDS011;47692;53.714;11.372;2022-12-20T10:56:27;22.02;;;13.60;;
61785;SDS011;47692;53.714;11.372;2022-12-20T10:59:00;19.88;;;11.20;;
61785;SDS011;47692;53.714;11.372;2022-12-20T11:01:28;23.00;;;11.65;;
61785;SDS011;47692;53.714;11.372;2022-12-20T11:06:23;19.98;;;11.32;;
61785;SDS011;47692;53.714;11.372;2022-12-20T11:11:59;19.40;;;10.40;;
61785;SDS011;47692;53.714;11.372;2022-12-20T11:14:40;19.73;;;9.75;;
61785;SDS011;47692;53.714;11.372;2022-12-20T11:20:00;21.92;;;10.70;;
61785;SDS011;47692;53.714;11.372;2022-12-20T11:22:54;16.50;;;10.25;;
61785;SDS011;47692;53.714;11.372;2022-12-20T11:33:42;23.73;;;10.35;;
61785;SDS011;47692;53.714;11.372;2022-12-20T11:36:35;24.02;;;10.60;;
61785;SDS011;47692;53.714;11.372;2022-12-20T11:53:49;19.35;;;9.57;;
61785;SDS011;47692;53.714;11.372;2022-12-20T11:56:36;19.50;;;9.32;;
61785;SDS011;47692;53.714;11.372;2022-12-20T11:59:05;18.50;;;9.52;;
61785;SDS011;47692;53.714;11.372;2022-12-20T12:01:37;18.17;;;10.25;;
61785;SDS011;47692;53.714;11.372;2022-12-20T12:09:26;19.20;;;9.40;;
61785;SDS011;47692;53.714;11.372;2022-12-20T12:11:59;18.92;;;9.43;;
61785;SDS011;47692;53.714;11.372;2022-12-20T12:14:37;19.60;;;9.70;;
61785;SDS011;47692;53.714;11.372;2022-12-20T12:17:07;16.85;;;9.30;;
61785;SDS011;47692;53.714;11.372;2022-12-20T12:19:39;20.02;;;9.70;;
61785;SDS011;47692;53.714;11.372;2022-12-20T12:22:09;17.25;;;8.93;;
61785;SDS011;47692;53.714;11.372;2022-12-20T12:24:42;14.77;;;8.57;;
61785;SDS011;47692;53.714;11.372;2022-12-20T12:27:20;16.40;;;9.18;;
61785;SDS011;47692;53.714;11.372;2022-12-20T12:29:48;18.52;;;9.10;;
61785;SDS011;47692;53.714;11.372;2022-12-20T12:32:17;16.00;;;8.75;;
61785;SDS011;47692;53.714;11.372;2022-12-20T12:40:49;14.88;;;7.53;;
61785;SDS011;47692;53.714;11.372;2022-12-20T12:45:57;15.52;;;8.35;;
61785;SDS011;47692;53.714;11.372;2022-12-20T12:51:05;17.52;;;8.85;;
61785;SDS011;47692;53.714;11.372;2022-12-20T13:09:19;18.60;;;10.07;;
61785;SDS011;47692;53.714;11.372;2022-12-20T13:14:58;13.98;;;7.80;;
61785;SDS011;47692;53.714;11.372;2022-12-20T13:19:55;17.42;;;8.10;;
61785;SDS011;47692;53.714;11.372;2022-12-20T13:22:24;13.80;;;7.32;;
61785;SDS011;47692;53.714;11.372;2022-12-20T13:27:28;14.43;;;7.68;;
61785;SDS011;47692;53.714;11.372;2022-12-20T13:40:20;12.45;;;6.88;;
61785;SDS011;47692;53.714;11.372;2022-12-20T13:42:55;12.60;;;7.20;;
61785;SDS011;47692;53.714;11.372;2022-12-20T13:45:21;12.15;;;6.90;;
61785;SDS011;47692;53.714;11.372;2022-12-20T13:47:48;16.50;;;7.95;;
61785;SDS011;47692;53.714;11.372;2022-12-20T13:52:51;11.68;;;6.63;;
61785;SDS011;47692;53.714;11.372;2022-12-20T13:55:51;10.50;;;6.00;;
61785;SDS011;47692;53.714;11.372;2022-12-20T14:00:52;14.30;;;7.00;;
61785;SDS011;47692;53.714;11.372;2022-12-20T14:03:25;13.07;;;7.30;;
61785;SDS011;47692;53.714;11.372;2022-12-20T14:06:11;15.98;;;7.30;;
61785;SDS011;47692;53.714;11.372;2022-12-20T14:08:48;12.70;;;6.78;;
61785;SDS011;47692;53.714;11.372;2022-12-20T14:11:15;14.65;;;6.78;;
61785;SDS011;47692;53.714;11.372;2022-12-20T14:13:50;10.65;;;6.32;;
61785;SDS011;47692;53.714;11.372;2022-12-20T14:16:20;11.98;;;6.55;;
61785;SDS011;47692;53.714;11.372;2022-12-20T14:18:58;16.00;;;7.10;;
61785;SDS011;47692;53.714;11.372;2022-12-20T14:21:26;12.82;;;6.47;;
61785;SDS011;47692;53.714;11.372;2022-12-20T14:23:53;10.35;;;6.47;;
61785;SDS011;47692;53.714;11.372;2022-12-20T14:26:27;11.65;;;5.95;;
61785;SDS011;47692;53.714;11.372;2022-12-20T14:28:58;10.70;;;6.28;;
61785;SDS011;47692;53.714;11.372;2022-12-20T14:31:27;14.40;;;7.03;;
61785;SDS011;47692;53.714;11.372;2022-12-20T14:36:38;9.90;;;5.25;;
61785;SDS011;47692;53.714;11.372;2022-12-20T14:44:31;10.50;;;6.20;;
61785;SDS011;47692;53.714;11.372;2022-12-20T14:46:59;11.93;;;6.60;;
61785;SDS011;47692;53.714;11.372;2022-12-20T14:49:29;14.80;;;8.38;;
61785;SDS011;47692;53.714;11.372;2022-12-20T14:52:13;9.07;;;5.95;;
61785;SDS011;47692;53.714;11.372;2022-12-20T14:54:43;12.88;;;6.75;;
61785;SDS011;47692;53.714;11.372;2022-12-20T14:57:21;13.13;;;6.90;;
61785;SDS011;47692;53.714;11.372;2022-12-20T15:02:55;10.77;;;6.38;;
61785;SDS011;47692;53.714;11.372;2022-12-20T15:08:19;12.52;;;6.60;;
61785;SDS011;47692;53.714;11.372;2022-12-20T15:11:01;13.02;;;6.60;;
61785;SDS011;47692;53.714;11.372;2022-12-20T15:13:37;10.25;;;6.70;;
61785;SDS011;47692;53.714;11.372;2022-12-20T15:16:23;14.48;;;7.40;;
61785;SDS011;47692;53.714;11.372;2022-12-20T15:18:51;14.00;;;6.43;;
61785;SDS011;47692;53.714;11.372;2022-12-20T15:23:55;13.52;;;7.00;;
61785;SDS011;47692;53.714;11.372;2022-12-20T15:26:24;10.48;;;6.30;;
61785;SDS011;47692;53.714;11.372;2022-12-20T15:28:50;11.50;;;6.70;;
61785;SDS011;47692;53.714;11.372;2022-12-20T15:31:17;11.55;;;6.57;;
61785;SDS011;47692;53.714;11.372;2022-12-20T15:33:45;13.15;;;6.65;;
61785;SDS011;47692;53.714;11.372;2022-12-20T15:36:18;16.38;;;7.13;;
61785;SDS011;47692;53.714;11.372;2022-12-20T15:38:45;13.35;;;7.47;;
61785;SDS011;47692;53.714;11.372;2022-12-20T15:41:23;12.48;;;7.00;;
61785;SDS011;47692;53.714;11.372;2022-12-20T15:43:55;13.57;;;7.57;;
61785;SDS011;47692;53.714;11.372;2022-12-20T15:46:24;11.85;;;7.03;;
61785;SDS011;47692;53.714;11.372;2022-12-20T15:48:50;14.40;;;7.38;;
61785;SDS011;47692;53.714;11.372;2022-12-20T15:51:36;11.77;;;6.90;;
61785;SDS011;47692;53.714;11.372;2022-12-20T15:54:03;13.18;;;7.00;;
61785;SDS011;47692;53.714;11.372;2022-12-20T15:56:34;14.73;;;7.72;;
61785;SDS011;47692;53.714;11.372;2022-12-20T15:58:59;12.18;;;6.63;;
61785;SDS011;47692;53.714;11.372;2022-12-20T16:01:30;12.52;;;7.07;;
61785;SDS011;47692;53.714;11.372;2022-12-20T16:04:00;10.80;;;6.90;;
61785;SDS011;47692;53.714;11.372;2022-12-20T16:06:26;12.07;;;6.97;;
61785;SDS011;47692;53.714;11.372;2022-12-20T16:08:51;16.23;;;8.30;;
61785;SDS011;47692;53.714;11.372;2022-12-20T16:11:24;13.80;;;8.10;;
61785;SDS011;47692;53.714;11.372;2022-12-20T16:13:52;13.77;;;8.00;;
61785;SDS011;47692;53.714;11.372;2022-12-20T16:16:19;20.67;;;8.80;;
61785;SDS011;47692;53.714;11.372;2022-12-20T16:18:46;19.35;;;10.98;;
61785;SDS011;47692;53.714;11.372;2022-12-20T16:24:12;20.60;;;13.60;;
61785;SDS011;47692;53.714;11.372;2022-12-20T16:26:39;16.13;;;8.35;;
61785;SDS011;47692;53.714;11.372;2022-12-20T16:29:04;15.35;;;10.10;;
61785;SDS011;47692;53.714;11.372;2022-12-20T16:31:31;17.65;;;10.50;;
61785;SDS011;47692;53.714;11.372;2022-12-20T16:33:59;14.23;;;8.60;;
61785;SDS011;47692;53.714;11.372;2022-12-20T16:36:29;18.30;;;11.10;;
61785;SDS011;47692;53.714;11.372;2022-12-20T16:38:55;16.42;;;10.45;;
61785;SDS011;47692;53.714;11.372;2022-12-20T16:41:21;13.98;;;8.82;;